sensor_id;sensor_type;location;lat;lon;timestamp;temperature;humidity
2973;DHT22;1496;51.404;7.232;2023-02-01T00:00:56;5.40;99.90
2973;DHT22;1496;51.404;7.232;2023-02-01T00:03:25;5.50;99.90
2973;DHT22;1496;51.404;7.232;2023-02-01T00:05:56;5.40;99.90
2973;DHT22;1496;51.404;7.232;2023-02-01T00:08:22;5.40;99.90
2973;DHT22;1496;51.404;7.232;2023-02-01T00:10:57;5.50;99.90
2973;DHT22;1496;51.404;7.232;2023-02-01T00:13:23;5.50;99.90
2973;DHT22;1496;51.404;7.232;2023-02-01T00:15:49;5.50;99.90
2973;DHT22;1496;51.404;7.232;2023-02-01T00:18:16;5.50;99.90
2973;DHT22;1496;51.404;7.232;2023-02-01T00:20:47;5.40;99.90
2973;DHT22;1496;51.404;7.232;2023-02-01T00:23:12;5.50;99.90
2973;DHT22;1496;51.404;7.232;2023-02-01T00:25:39;5.40;99.90
2973;DHT22;1496;51.404;7.232;2023-02-01T00:28:05;5.40;99.90
2973;DHT22;1496;51.404;7.232;2023-02-01T00:30:32;5.40;99.90
2973;DHT22;1496;51.404;7.232;2023-02-01T00:32:59;5.40;99.90
2973;DHT22;1496;51.404;7.232;2023-02-01T00:35:24;5.40;99.90
2973;DHT22;1496;51.404;7.232;2023-02-01T00:37:53;5.30;62.90
2973;DHT22;1496;51.404;7.232;2023-02-01T00:40:18;5.40;99.90
2973;DHT22;1496;51.404;7.232;2023-02-01T00:42:45;5.30;71.30
2973;DHT22;1496;51.404;7.232;2023-02-01T00:45:11;5.40;17.20
2973;DHT22;1496;51.404;7.232;2023-02-01T00:47:37;5.40;1.00
2973;DHT22;1496;51.404;7.232;2023-02-01T00:50:05;5.40;1.00
2973;DHT22;1496;51.404;7.232;2023-02-01T00:52:31;5.30;1.00
2973;DHT22;1496;51.404;7.232;2023-02-01T00:54:58;5.30;26.70
2973;DHT22;1496;51.404;7.232;2023-02-01T00:57:25;5.30;1.00
2973;DHT22;1496;51.404;7.232;2023-02-01T00:59:53;5.30;1.00
2973;DHT22;1496;51.404;7.232;2023-02-01T01:02:20;5.30;1.00
2973;DHT22;1496;51.404;7.232;2023-02-01T01:04:48;5.20;5.80
2973;DHT22;1496;51.404;7.232;2023-02-01T01:07:15;5.30;1.00
2973;DHT22;1496;51.404;7.232;2023-02-01T01:09:42;5.40;1.00
2973;DHT22;1496;51.404;7.232;2023-02-01T01:12:10;5.30;20.90
2973;DHT22;1496;51.404;7.232;2023-02-01T01:14:38;5.30;25.90
2973;DHT22;1496;51.404;7.232;2023-02-01T01:17:04;5.40;1.10
2973;DHT22;1496;51.404;7.232;2023-02-01T01:19:32;5.40;6.80
2973;DHT22;1496;51.404;7.232;2023-02-01T01:21:58;5.40;64.70
2973;DHT22;1496;51.404;7.232;2023-02-01T01:24:26;5.40;99.90
2973;DHT22;1496;51.404;7.232;2023-02-01T01:26:53;5.40;99.90
2973;DHT22;1496;51.404;7.232;2023-02-01T01:29:19;5.40;99.90
2973;DHT22;1496;51.404;7.232;2023-02-01T01:31:47;5.50;99.90
2973;DHT22;1496;51.404;7.232;2023-02-01T01:34:14;5.40;99.90
2973;DHT22;1496;51.404;7.232;2023-02-01T01:36:41;5.50;99.90
2973;DHT22;1496;51.404;7.232;2023-02-01T01:39:08;5.50;99.90
2973;DHT22;1496;51.404;7.232;2023-02-01T01:41:34;5.50;99.90
2973;DHT22;1496;51.404;7.232;2023-02-01T01:47:19;5.40;99.90
2973;DHT22;1496;51.404;7.232;2023-02-01T01:49:46;5.50;99.90
2973;DHT22;1496;51.404;7.232;2023-02-01T01:52:14;5.40;99.90
2973;DHT22;1496;51.404;7.232;2023-02-01T01:54:46;5.40;99.90
2973;DHT22;1496;51.404;7.232;2023-02-01T01:57:37;5.50;99.90
2973;DHT22;1496;51.404;7.232;2023-02-01T02:00:11;5.40;99.90
2973;DHT22;1496;51.404;7.232;2023-02-01T02:02:44;5.40;99.90
2973;DHT22;1496;51.404;7.232;2023-02-01T02:05:15;5.40;99.90
2973;DHT22;1496;51.404;7.232;2023-02-01T02:07:45;5.40;99.90
2973;DHT22;1496;51.404;7.232;2023-02-01T02:10:15;5.40;99.90
2973;DHT22;1496;51.404;7.232;2023-02-01T02:12:45;5.40;99.90
2973;DHT22;1496;51.404;7.232;2023-02-01T02:15:14;5.30;99.90
2973;DHT22;1496;51.404;7.232;2023-02-01T02:18:03;5.30;99.90
2973;DHT22;1496;51.404;7.232;2023-02-01T02:32:21;5.30;1.00
2973;DHT22;1496;51.404;7.232;2023-02-01T02:35:16;5.20;1.00
2973;DHT22;1496;51.404;7.232;2023-02-01T02:38:04;5.10;1.00
2973;DHT22;1496;51.404;7.232;2023-02-01T02:40:56;5.20;1.00
2973;DHT22;1496;51.404;7.232;2023-02-01T02:44:10;5.20;1.00
2973;DHT22;1496;51.404;7.232;2023-02-01T02:46:49;5.20;1.00
2973;DHT22;1496;51.404;7.232;2023-02-01T02:53:07;5.20;1.00
2973;DHT22;1496;51.404;7.232;2023-02-01T02:55:55;5.20;99.90
2973;DHT22;1496;51.404;7.232;2023-02-01T02:58:43;5.20;99.90
2973;DHT22;1496;51.404;7.232;2023-02-01T03:01:30;5.30;99.90
2973;DHT22;1496;51.404;7.232;2023-02-01T03:04:17;5.20;99.90
2973;DHT22;1496;51.404;7.232;2023-02-01T03:06:49;5.30;99.90
2973;DHT22;1496;51.404;7.232;2023-02-01T03:09:37;5.20;99.90
2973;DHT22;1496;51.404;7.232;2023-02-01T03:12:09;5.20;99.90
2973;DHT22;1496;51.404;7.232;2023-02-01T03:15:03;5.20;99.90
2973;DHT22;1496;51.404;7.232;2023-02-01T03:17:37;5.20;99.90
2973;DHT22;1496;51.404;7.232;2023-02-01T03:20:07;5.10;99.90
2973;DHT22;1496;51.404;7.232;2023-02-01T03:22:38;5.00;99.90
2973;DHT22;1496;51.404;7.232;2023-02-01T03:25:08;5.00;99.90
2973;DHT22;1496;51.404;7.232;2023-02-01T03:27:49;5.00;99.90
2973;DHT22;1496;51.404;7.232;2023-02-01T03:32:51;4.90;99.90
2973;DHT22;1496;51.404;7.232;2023-02-01T03:41:08;4.90;99.90
2973;DHT22;1496;51.404;7.232;2023-02-01T03:44:01;5.00;99.90
2973;DHT22;1496;51.404;7.232;2023-02-01T03:46:37;5.00;99.90
2973;DHT22;1496;51.404;7.232;2023-02-01T03:49:11;5.00;99.90
2973;DHT22;1496;51.404;7.232;2023-02-01T03:51:40;5.10;99.90
2973;DHT22;1496;51.404;7.232;2023-02-01T03:54:13;5.10;99.90
2973;DHT22;1496;51.404;7.232;2023-02-01T03:56:43;5.10;99.90
2973;DHT22;1496;51.404;7.232;2023-02-01T03:59:11;5.10;99.90
2973;DHT22;1496;51.404;7.232;2023-02-01T04:01:39;5.10;99.90
2973;DHT22;1496;51.404;7.232;2023-02-01T04:04:05;5.10;99.90
2973;DHT22;1496;51.404;7.232;2023-02-01T04:06:32;5.10;99.90
2973;DHT22;1496;51.404;7.232;2023-02-01T04:09:02;5.10;99.90
2973;DHT22;1496;51.404;7.232;2023-02-01T04:11:28;5.10;99.90
2973;DHT22;1496;51.404;7.232;2023-02-01T04:13:56;5.10;99.90
2973;DHT22;1496;51.404;7.232;2023-02-01T04:16:22;5.10;99.90
2973;DHT22;1496;51.404;7.232;2023-02-01T04:18:50;5.10;99.90
2973;DHT22;1496;51.404;7.232;2023-02-01T04:21:16;5.10;99.90
2973;DHT22;1496;51.404;7.232;2023-02-01T04:23:45;5.10;99.90
2973;DHT22;1496;51.404;7.232;2023-02-01T04:26:12;5.10;99.90
2973;DHT22;1496;51.404;7.232;2023-02-01T04:28:39;5.20;99.90
2973;DHT22;1496;51.404;7.232;2023-02-01T04:31:06;5.10;99.90
2973;DHT22;1496;51.404;7.232;2023-02-01T04:33:32;5.10;99.90
2973;DHT22;1496;51.404;7.232;2023-02-01T04:36:00;5.10;99.90
2973;DHT22;1496;51.404;7.232;2023-02-01T04:38:28;5.20;99.90
2973;DHT22;1496;51.404;7.232;2023-02-01T04:40:55;5.20;99.90
2973;DHT22;1496;51.404;7.232;2023-02-01T04:43:21;5.20;99.90
2973;DHT22;1496;51.404;7.232;2023-02-01T04:45:49;5.20;99.90
2973;DHT22;1496;51.404;7.232;2023-02-01T04:48:18;5.20;99.90
2973;DHT22;1496;51.404;7.232;2023-02-01T04:50:48;5.20;99.90
2973;DHT22;1496;51.404;7.232;2023-02-01T04:53:15;5.20;99.90
2973;DHT22;1496;51.404;7.232;2023-02-01T04:55:42;5.20;99.90
2973;DHT22;1496;51.404;7.232;2023-02-01T04:58:08;5.20;99.90
2973;DHT22;1496;51.404;7.232;2023-02-01T05:00:36;5.20;99.90
2973;DHT22;1496;51.404;7.232;2023-02-01T05:03:02;5.20;99.90
2973;DHT22;1496;51.404;7.232;2023-02-01T05:05:29;5.20;99.90
2973;DHT22;1496;51.404;7.232;2023-02-01T05:07:56;5.20;99.90
2973;DHT22;1496;51.404;7.232;2023-02-01T05:10:22;5.20;99.90
2973;DHT22;1496;51.404;7.232;2023-02-01T05:12:49;5.20;99.90
2973;DHT22;1496;51.404;7.232;2023-02-01T05:15:34;5.20;99.90
2973;DHT22;1496;51.404;7.232;2023-02-01T05:18:00;5.20;99.90
2973;DHT22;1496;51.404;7.232;2023-02-01T05:20:27;5.20;99.90
2973;DHT22;1496;51.404;7.232;2023-02-01T05:22:54;5.10;99.90
2973;DHT22;1496;51.404;7.232;2023-02-01T05:25:20;5.10;99.90
2973;DHT22;1496;51.404;7.232;2023-02-01T05:27:47;5.10;99.90
2973;DHT22;1496;51.404;7.232;2023-02-01T05:30:14;5.10;99.90
2973;DHT22;1496;51.404;7.232;2023-02-01T05:32:41;5.10;99.90
2973;DHT22;1496;51.404;7.232;2023-02-01T05:35:08;5.20;99.90
2973;DHT22;1496;51.404;7.232;2023-02-01T05:37:35;5.20;99.90
2973;DHT22;1496;51.404;7.232;2023-02-01T05:40:03;5.20;99.90
2973;DHT22;1496;51.404;7.232;2023-02-01T05:42:29;5.20;99.90
2973;DHT22;1496;51.404;7.232;2023-02-01T05:44:55;5.20;99.90
2973;DHT22;1496;51.404;7.232;2023-02-01T05:47:23;5.20;99.90
2973;DHT22;1496;51.404;7.232;2023-02-01T05:49:51;5.10;99.90
2973;DHT22;1496;51.404;7.232;2023-02-01T05:52:17;5.10;99.90
2973;DHT22;1496;51.404;7.232;2023-02-01T05:54:46;5.10;99.90
2973;DHT22;1496;51.404;7.232;2023-02-01T05:57:14;5.00;99.90
2973;DHT22;1496;51.404;7.232;2023-02-01T05:59:42;5.10;99.90
2973;DHT22;1496;51.404;7.232;2023-02-01T06:02:11;5.00;99.90
2973;DHT22;1496;51.404;7.232;2023-02-01T06:04:38;4.90;99.90
2973;DHT22;1496;51.404;7.232;2023-02-01T06:07:10;4.90;99.90
2973;DHT22;1496;51.404;7.232;2023-02-01T06:09:37;4.90;99.90
2973;DHT22;1496;51.404;7.232;2023-02-01T06:12:05;4.90;99.90
2973;DHT22;1496;51.404;7.232;2023-02-01T06:14:33;4.90;99.90
2973;DHT22;1496;51.404;7.232;2023-02-01T06:17:00;4.90;99.90
2973;DHT22;1496;51.404;7.232;2023-02-01T06:19:26;4.90;99.90
2973;DHT22;1496;51.404;7.232;2023-02-01T06:21:54;4.90;99.90
2973;DHT22;1496;51.404;7.232;2023-02-01T06:24:20;5.00;99.90
2973;DHT22;1496;51.404;7.232;2023-02-01T06:26:46;5.00;99.90
2973;DHT22;1496;51.404;7.232;2023-02-01T06:29:13;5.00;99.90
2973;DHT22;1496;51.404;7.232;2023-02-01T06:31:39;5.00;99.90
2973;DHT22;1496;51.404;7.232;2023-02-01T06:34:06;5.00;99.90
2973;DHT22;1496;51.404;7.232;2023-02-01T06:36:35;5.00;99.90
2973;DHT22;1496;51.404;7.232;2023-02-01T06:39:03;5.00;99.90
2973;DHT22;1496;51.404;7.232;2023-02-01T06:41:30;5.00;99.90
2973;DHT22;1496;51.404;7.232;2023-02-01T06:43:56;5.00;99.90
2973;DHT22;1496;51.404;7.232;2023-02-01T06:46:23;5.00;99.90
2973;DHT22;1496;51.404;7.232;2023-02-01T06:48:50;4.90;99.90
2973;DHT22;1496;51.404;7.232;2023-02-01T06:51:23;5.00;99.90
2973;DHT22;1496;51.404;7.232;2023-02-01T06:53:51;5.00;99.90
2973;DHT22;1496;51.404;7.232;2023-02-01T06:56:17;5.00;99.90
2973;DHT22;1496;51.404;7.232;2023-02-01T06:58:45;5.00;99.90
2973;DHT22;1496;51.404;7.232;2023-02-01T07:01:12;5.00;99.90
2973;DHT22;1496;51.404;7.232;2023-02-01T07:03:40;4.90;99.90
2973;DHT22;1496;51.404;7.232;2023-02-01T07:06:09;5.00;99.90
2973;DHT22;1496;51.404;7.232;2023-02-01T07:08:37;5.00;99.90
2973;DHT22;1496;51.404;7.232;2023-02-01T07:11:05;5.00;99.90
2973;DHT22;1496;51.404;7.232;2023-02-01T07:13:31;5.00;99.90
2973;DHT22;1496;51.404;7.232;2023-02-01T07:16:03;5.00;99.90
2973;DHT22;1496;51.404;7.232;2023-02-01T07:18:30;5.00;99.90
2973;DHT22;1496;51.404;7.232;2023-02-01T07:20:57;5.00;99.90
2973;DHT22;1496;51.404;7.232;2023-02-01T07:23:25;5.00;99.90
2973;DHT22;1496;51.404;7.232;2023-02-01T07:25:56;5.00;99.90
2973;DHT22;1496;51.404;7.232;2023-02-01T07:28:24;5.00;99.90
2973;DHT22;1496;51.404;7.232;2023-02-01T07:30:52;5.00;99.90
2973;DHT22;1496;51.404;7.232;2023-02-01T07:33:23;5.00;99.90
2973;DHT22;1496;51.404;7.232;2023-02-01T07:35:51;5.00;99.90
2973;DHT22;1496;51.404;7.232;2023-02-01T07:38:19;5.00;99.90
2973;DHT22;1496;51.404;7.232;2023-02-01T07:40:47;5.10;99.90
2973;DHT22;1496;51.404;7.232;2023-02-01T07:43:14;5.10;99.90
2973;DHT22;1496;51.404;7.232;2023-02-01T07:45:40;5.10;99.90
2973;DHT22;1496;51.404;7.232;2023-02-01T07:48:07;5.00;99.90
2973;DHT22;1496;51.404;7.232;2023-02-01T07:50:34;5.10;99.90
2973;DHT22;1496;51.404;7.232;2023-02-01T07:53:02;5.00;99.90
2973;DHT22;1496;51.404;7.232;2023-02-01T07:55:29;5.00;99.90
2973;DHT22;1496;51.404;7.232;2023-02-01T07:57:59;5.10;99.90
2973;DHT22;1496;51.404;7.232;2023-02-01T08:00:26;5.10;99.90
2973;DHT22;1496;51.404;7.232;2023-02-01T08:03:12;5.10;99.90
2973;DHT22;1496;51.404;7.232;2023-02-01T08:05:39;5.10;99.90
2973;DHT22;1496;51.404;7.232;2023-02-01T08:08:06;5.20;99.90
2973;DHT22;1496;51.404;7.232;2023-02-01T08:10:34;5.20;99.90
2973;DHT22;1496;51.404;7.232;2023-02-01T08:13:02;5.20;99.90
2973;DHT22;1496;51.404;7.232;2023-02-01T08:15:31;5.20;99.90
2973;DHT22;1496;51.404;7.232;2023-02-01T08:17:58;5.20;99.90
2973;DHT22;1496;51.404;7.232;2023-02-01T08:20:25;5.20;99.90
2973;DHT22;1496;51.404;7.232;2023-02-01T08:22:54;5.20;99.90
2973;DHT22;1496;51.404;7.232;2023-02-01T08:25:22;5.30;99.90
2973;DHT22;1496;51.404;7.232;2023-02-01T08:27:50;5.30;99.90
2973;DHT22;1496;51.404;7.232;2023-02-01T08:30:17;5.30;99.90
2973;DHT22;1496;51.404;7.232;2023-02-01T08:32:44;5.30;99.90
2973;DHT22;1496;51.404;7.232;2023-02-01T08:35:11;5.40;99.90
2973;DHT22;1496;51.404;7.232;2023-02-01T08:37:38;5.30;99.90
2973;DHT22;1496;51.404;7.232;2023-02-01T08:40:05;5.30;99.90
2973;DHT22;1496;51.404;7.232;2023-02-01T08:42:31;5.30;99.90
2973;DHT22;1496;51.404;7.232;2023-02-01T08:45:27;5.40;99.90
2973;DHT22;1496;51.404;7.232;2023-02-01T08:47:57;5.30;99.90
2973;DHT22;1496;51.404;7.232;2023-02-01T08:50:24;5.30;99.90
2973;DHT22;1496;51.404;7.232;2023-02-01T08:52:50;5.40;99.90
2973;DHT22;1496;51.404;7.232;2023-02-01T08:55:18;5.40;99.90
2973;DHT22;1496;51.404;7.232;2023-02-01T08:57:46;5.40;99.90
2973;DHT22;1496;51.404;7.232;2023-02-01T09:00:15;5.40;99.90
2973;DHT22;1496;51.404;7.232;2023-02-01T09:02:43;5.40;99.90
2973;DHT22;1496;51.404;7.232;2023-02-01T09:05:11;5.40;99.90
2973;DHT22;1496;51.404;7.232;2023-02-01T09:07:40;5.40;99.90
2973;DHT22;1496;51.404;7.232;2023-02-01T09:10:09;5.40;99.90
2973;DHT22;1496;51.404;7.232;2023-02-01T09:12:36;5.40;99.90
2973;DHT22;1496;51.404;7.232;2023-02-01T09:15:04;5.40;99.90
2973;DHT22;1496;51.404;7.232;2023-02-01T09:17:33;5.40;99.90
2973;DHT22;1496;51.404;7.232;2023-02-01T09:20:00;5.40;99.90
2973;DHT22;1496;51.404;7.232;2023-02-01T09:22:26;5.40;99.90
2973;DHT22;1496;51.404;7.232;2023-02-01T09:24:53;5.50;99.90
2973;DHT22;1496;51.404;7.232;2023-02-01T09:27:20;5.50;99.90
2973;DHT22;1496;51.404;7.232;2023-02-01T09:29:47;5.50;99.90
2973;DHT22;1496;51.404;7.232;2023-02-01T09:32:20;5.50;99.90
2973;DHT22;1496;51.404;7.232;2023-02-01T09:34:46;5.50;99.90
2973;DHT22;1496;51.404;7.232;2023-02-01T09:37:13;5.50;99.90
2973;DHT22;1496;51.404;7.232;2023-02-01T09:39:40;5.50;99.90
2973;DHT22;1496;51.404;7.232;2023-02-01T09:45:24;5.50;99.90
2973;DHT22;1496;51.404;7.232;2023-02-01T09:47:57;5.50;99.90
2973;DHT22;1496;51.404;7.232;2023-02-01T09:51:06;5.50;99.90
2973;DHT22;1496;51.404;7.232;2023-02-01T09:53:39;5.50;99.90
2973;DHT22;1496;51.404;7.232;2023-02-01T09:56:23;5.50;99.90
2973;DHT22;1496;51.404;7.232;2023-02-01T09:59:19;5.50;99.90
2973;DHT22;1496;51.404;7.232;2023-02-01T10:01:48;5.50;99.90
2973;DHT22;1496;51.404;7.232;2023-02-01T10:04:15;5.50;99.90
2973;DHT22;1496;51.404;7.232;2023-02-01T10:18:29;5.70;99.90
2973;DHT22;1496;51.404;7.232;2023-02-01T10:21:23;5.70;99.90
2973;DHT22;1496;51.404;7.232;2023-02-01T10:26:42;5.80;99.90
2973;DHT22;1496;51.404;7.232;2023-02-01T10:29:20;5.80;99.90
2973;DHT22;1496;51.404;7.232;2023-02-01T10:31:46;5.70;99.90
2973;DHT22;1496;51.404;7.232;2023-02-01T10:34:26;5.70;99.90
2973;DHT22;1496;51.404;7.232;2023-02-01T10:36:56;5.70;99.90
2973;DHT22;1496;51.404;7.232;2023-02-01T10:39:25;5.70;99.90
2973;DHT22;1496;51.404;7.232;2023-02-01T10:41:55;5.70;99.90
2973;DHT22;1496;51.404;7.232;2023-02-01T10:44:28;5.70;99.90
2973;DHT22;1496;51.404;7.232;2023-02-01T10:46:56;5.70;99.90
2973;DHT22;1496;51.404;7.232;2023-02-01T10:49:47;5.70;99.90
2973;DHT22;1496;51.404;7.232;2023-02-01T10:52:40;5.80;99.90
2973;DHT22;1496;51.404;7.232;2023-02-01T10:55:34;5.80;99.90
2973;DHT22;1496;51.404;7.232;2023-02-01T10:58:04;5.80;99.90
2973;DHT22;1496;51.404;7.232;2023-02-01T11:00:55;5.80;99.90
2973;DHT22;1496;51.404;7.232;2023-02-01T11:05:57;5.80;99.90
2973;DHT22;1496;51.404;7.232;2023-02-01T11:08:24;5.80;99.90
2973;DHT22;1496;51.404;7.232;2023-02-01T11:11:01;5.80;99.90
2973;DHT22;1496;51.404;7.232;2023-02-01T11:13:31;5.80;99.90
2973;DHT22;1496;51.404;7.232;2023-02-01T11:16:02;5.80;99.90
2973;DHT22;1496;51.404;7.232;2023-02-01T11:18:35;5.80;99.90
2973;DHT22;1496;51.404;7.232;2023-02-01T11:21:03;5.90;99.90
2973;DHT22;1496;51.404;7.232;2023-02-01T11:23:32;5.90;99.90
2973;DHT22;1496;51.404;7.232;2023-02-01T11:26:14;5.90;99.90
2973;DHT22;1496;51.404;7.232;2023-02-01T11:29:05;5.90;99.90
2973;DHT22;1496;51.404;7.232;2023-02-01T11:31:35;6.00;99.90
2973;DHT22;1496;51.404;7.232;2023-02-01T11:34:32;6.00;99.90
2973;DHT22;1496;51.404;7.232;2023-02-01T11:37:01;6.00;99.90
2973;DHT22;1496;51.404;7.232;2023-02-01T11:39:32;6.00;99.90
2973;DHT22;1496;51.404;7.232;2023-02-01T11:42:15;6.00;99.90
2973;DHT22;1496;51.404;7.232;2023-02-01T11:44:44;6.00;99.90
2973;DHT22;1496;51.404;7.232;2023-02-01T11:47:28;6.00;99.90
2973;DHT22;1496;51.404;7.232;2023-02-01T11:50:00;6.10;99.90
2973;DHT22;1496;51.404;7.232;2023-02-01T12:07:23;5.90;99.90
2973;DHT22;1496;51.404;7.232;2023-02-01T12:13:08;5.70;99.90
2973;DHT22;1496;51.404;7.232;2023-02-01T12:18:54;5.50;99.90
2973;DHT22;1496;51.404;7.232;2023-02-01T12:21:43;5.50;99.90
2973;DHT22;1496;51.404;7.232;2023-02-01T12:29:35;5.50;99.90
2973;DHT22;1496;51.404;7.232;2023-02-01T12:38:01;5.50;99.90
2973;DHT22;1496;51.404;7.232;2023-02-01T12:40:54;5.70;99.90
2973;DHT22;1496;51.404;7.232;2023-02-01T12:44:07;5.70;99.90
2973;DHT22;1496;51.404;7.232;2023-02-01T12:46:46;5.70;99.90
2973;DHT22;1496;51.404;7.232;2023-02-01T12:49:19;5.80;99.90
2973;DHT22;1496;51.404;7.232;2023-02-01T12:51:57;5.80;99.90
2973;DHT22;1496;51.404;7.232;2023-02-01T12:54:45;5.80;99.90
2973;DHT22;1496;51.404;7.232;2023-02-01T12:57:24;5.90;99.90
2973;DHT22;1496;51.404;7.232;2023-02-01T13:02:42;5.80;99.90
2973;DHT22;1496;51.404;7.232;2023-02-01T13:05:18;5.80;99.90
2973;DHT22;1496;51.404;7.232;2023-02-01T13:08:10;5.90;99.90
2973;DHT22;1496;51.404;7.232;2023-02-01T13:10:42;5.90;99.90
2973;DHT22;1496;51.404;7.232;2023-02-01T13:13:26;5.80;99.90
2973;DHT22;1496;51.404;7.232;2023-02-01T13:18:43;5.80;99.90
2973;DHT22;1496;51.404;7.232;2023-02-01T13:21:24;5.70;99.90
2973;DHT22;1496;51.404;7.232;2023-02-01T13:23:53;5.60;99.90
2973;DHT22;1496;51.404;7.232;2023-02-01T13:26:20;5.60;99.90
2973;DHT22;1496;51.404;7.232;2023-02-01T13:29:01;5.60;99.90
2973;DHT22;1496;51.404;7.232;2023-02-01T13:31:47;5.60;1.00
2973;DHT22;1496;51.404;7.232;2023-02-01T13:42:49;5.60;1.00
2973;DHT22;1496;51.404;7.232;2023-02-01T13:45:23;5.60;1.00
2973;DHT22;1496;51.404;7.232;2023-02-01T13:47:54;5.70;99.90
2973;DHT22;1496;51.404;7.232;2023-02-01T13:50:32;5.70;99.90
2973;DHT22;1496;51.404;7.232;2023-02-01T13:55:45;5.70;99.90
2973;DHT22;1496;51.404;7.232;2023-02-01T13:58:32;5.80;99.90
2973;DHT22;1496;51.404;7.232;2023-02-01T14:03:59;5.80;99.90
2973;DHT22;1496;51.404;7.232;2023-02-01T14:17:30;6.00;99.90
2973;DHT22;1496;51.404;7.232;2023-02-01T14:19:32;6.00;99.90
2973;DHT22;1496;51.404;7.232;2023-02-01T14:24:54;6.00;99.90
2973;DHT22;1496;51.404;7.232;2023-02-01T14:27:27;6.10;99.90
2973;DHT22;1496;51.404;7.232;2023-02-01T14:29:59;6.10;99.90
2973;DHT22;1496;51.404;7.232;2023-02-01T14:32:47;6.20;99.90
2973;DHT22;1496;51.404;7.232;2023-02-01T14:35:19;6.30;99.90
2973;DHT22;1496;51.404;7.232;2023-02-01T14:37:51;6.30;99.90
2973;DHT22;1496;51.404;7.232;2023-02-01T14:40:27;6.30;99.90
2973;DHT22;1496;51.404;7.232;2023-02-01T14:42:55;6.20;99.90
2973;DHT22;1496;51.404;7.232;2023-02-01T14:50:39;6.20;99.90
2973;DHT22;1496;51.404;7.232;2023-02-01T14:55:49;6.40;99.90
2973;DHT22;1496;51.404;7.232;2023-02-01T15:06:38;6.40;99.90
2973;DHT22;1496;51.404;7.232;2023-02-01T15:14:44;6.40;99.90
2973;DHT22;1496;51.404;7.232;2023-02-01T15:17:28;6.50;99.90
2973;DHT22;1496;51.404;7.232;2023-02-01T15:20:00;6.50;99.90
2973;DHT22;1496;51.404;7.232;2023-02-01T15:22:29;6.40;99.90
2973;DHT22;1496;51.404;7.232;2023-02-01T15:24:58;6.40;99.90
2973;DHT22;1496;51.404;7.232;2023-02-01T15:27:27;6.50;99.90
2973;DHT22;1496;51.404;7.232;2023-02-01T15:29:54;6.50;99.90
2973;DHT22;1496;51.404;7.232;2023-02-01T15:32:33;6.50;99.90
2973;DHT22;1496;51.404;7.232;2023-02-01T15:35:03;6.50;99.90
2973;DHT22;1496;51.404;7.232;2023-02-01T15:37:29;6.50;99.90
2973;DHT22;1496;51.404;7.232;2023-02-01T15:42:54;6.50;99.90
2973;DHT22;1496;51.404;7.232;2023-02-01T15:45:28;6.50;99.90
2973;DHT22;1496;51.404;7.232;2023-02-01T15:47:57;6.50;99.90
2973;DHT22;1496;51.404;7.232;2023-02-01T15:50:25;6.60;99.90
2973;DHT22;1496;51.404;7.232;2023-02-01T15:52:54;6.70;99.90
2973;DHT22;1496;51.404;7.232;2023-02-01T15:55:38;6.70;99.90
2973;DHT22;1496;51.404;7.232;2023-02-01T15:58:13;6.70;99.90
2973;DHT22;1496;51.404;7.232;2023-02-01T16:00:55;6.70;99.90
2973;DHT22;1496;51.404;7.232;2023-02-01T16:03:33;6.70;99.90
2973;DHT22;1496;51.404;7.232;2023-02-01T16:06:11;6.70;99.90
2973;DHT22;1496;51.404;7.232;2023-02-01T16:09:07;6.70;99.90
2973;DHT22;1496;51.404;7.232;2023-02-01T16:11:46;6.70;99.90
2973;DHT22;1496;51.404;7.232;2023-02-01T16:14:14;6.70;99.90
2973;DHT22;1496;51.404;7.232;2023-02-01T16:16:41;6.70;99.90
2973;DHT22;1496;51.404;7.232;2023-02-01T16:19:09;6.70;99.90
2973;DHT22;1496;51.404;7.232;2023-02-01T16:21:36;6.70;99.90
2973;DHT22;1496;51.404;7.232;2023-02-01T16:24:03;6.70;99.90
2973;DHT22;1496;51.404;7.232;2023-02-01T16:26:31;6.80;99.90
2973;DHT22;1496;51.404;7.232;2023-02-01T16:29:00;6.70;99.90
2973;DHT22;1496;51.404;7.232;2023-02-01T16:31:36;6.70;99.90
2973;DHT22;1496;51.404;7.232;2023-02-01T16:34:03;6.80;99.90
2973;DHT22;1496;51.404;7.232;2023-02-01T16:36:31;6.80;99.90
2973;DHT22;1496;51.404;7.232;2023-02-01T16:39:02;6.80;99.90
2973;DHT22;1496;51.404;7.232;2023-02-01T16:41:29;6.60;99.90
2973;DHT22;1496;51.404;7.232;2023-02-01T16:43:56;6.40;99.90
2973;DHT22;1496;51.404;7.232;2023-02-01T16:46:27;6.30;99.90
2973;DHT22;1496;51.404;7.232;2023-02-01T16:48:58;6.10;99.90
2973;DHT22;1496;51.404;7.232;2023-02-01T16:51:27;6.10;99.90
2973;DHT22;1496;51.404;7.232;2023-02-01T16:53:58;6.00;1.00
2973;DHT22;1496;51.404;7.232;2023-02-01T16:56:33;6.00;1.00
2973;DHT22;1496;51.404;7.232;2023-02-01T16:59:00;6.00;1.00
2973;DHT22;1496;51.404;7.232;2023-02-01T17:01:28;6.00;1.00
2973;DHT22;1496;51.404;7.232;2023-02-01T17:03:55;6.00;1.00
2973;DHT22;1496;51.404;7.232;2023-02-01T17:06:24;6.00;1.00
2973;DHT22;1496;51.404;7.232;2023-02-01T17:09:00;6.00;1.00
2973;DHT22;1496;51.404;7.232;2023-02-01T17:11:31;6.00;1.00
2973;DHT22;1496;51.404;7.232;2023-02-01T17:14:13;6.10;99.90
2973;DHT22;1496;51.404;7.232;2023-02-01T17:16:41;6.10;99.90
2973;DHT22;1496;51.404;7.232;2023-02-01T17:19:13;6.20;99.90
2973;DHT22;1496;51.404;7.232;2023-02-01T17:21:45;6.20;99.90
2973;DHT22;1496;51.404;7.232;2023-02-01T17:24:16;6.30;99.90
2973;DHT22;1496;51.404;7.232;2023-02-01T17:26:44;6.40;99.90
2973;DHT22;1496;51.404;7.232;2023-02-01T17:29:13;6.50;99.90
2973;DHT22;1496;51.404;7.232;2023-02-01T17:31:42;6.50;99.90
2973;DHT22;1496;51.404;7.232;2023-02-01T17:34:10;6.40;99.90
2973;DHT22;1496;51.404;7.232;2023-02-01T17:36:37;6.40;99.90
2973;DHT22;1496;51.404;7.232;2023-02-01T17:39:08;6.50;99.90
2973;DHT22;1496;51.404;7.232;2023-02-01T17:41:36;6.50;99.90
2973;DHT22;1496;51.404;7.232;2023-02-01T17:44:03;6.60;99.90
2973;DHT22;1496;51.404;7.232;2023-02-01T17:46:32;6.60;99.90
2973;DHT22;1496;51.404;7.232;2023-02-01T17:48:59;6.60;99.90
2973;DHT22;1496;51.404;7.232;2023-02-01T17:51:27;6.60;99.90
2973;DHT22;1496;51.404;7.232;2023-02-01T17:53:55;6.60;99.90
2973;DHT22;1496;51.404;7.232;2023-02-01T17:56:23;6.60;99.90
2973;DHT22;1496;51.404;7.232;2023-02-01T17:58:50;6.70;99.90
2973;DHT22;1496;51.404;7.232;2023-02-01T18:01:21;6.60;99.90
2973;DHT22;1496;51.404;7.232;2023-02-01T18:03:49;6.60;99.90
2973;DHT22;1496;51.404;7.232;2023-02-01T18:06:20;6.60;99.90
2973;DHT22;1496;51.404;7.232;2023-02-01T18:08:48;6.70;99.90
2973;DHT22;1496;51.404;7.232;2023-02-01T18:11:17;6.60;99.90
2973;DHT22;1496;51.404;7.232;2023-02-01T18:13:46;6.60;99.90
2973;DHT22;1496;51.404;7.232;2023-02-01T18:18:51;6.70;99.90
2973;DHT22;1496;51.404;7.232;2023-02-01T18:21:20;6.60;99.90
2973;DHT22;1496;51.404;7.232;2023-02-01T18:23:47;6.60;99.90
2973;DHT22;1496;51.404;7.232;2023-02-01T18:26:16;6.60;99.90
2973;DHT22;1496;51.404;7.232;2023-02-01T18:28:46;6.60;99.90
2973;DHT22;1496;51.404;7.232;2023-02-01T18:31:22;6.60;99.90
2973;DHT22;1496;51.404;7.232;2023-02-01T18:33:51;6.60;99.90
2973;DHT22;1496;51.404;7.232;2023-02-01T18:36:19;6.60;99.90
2973;DHT22;1496;51.404;7.232;2023-02-01T18:38:46;6.70;99.90
2973;DHT22;1496;51.404;7.232;2023-02-01T18:41:19;6.70;99.90
2973;DHT22;1496;51.404;7.232;2023-02-01T18:43:50;6.70;99.90
2973;DHT22;1496;51.404;7.232;2023-02-01T18:46:17;6.70;99.90
2973;DHT22;1496;51.404;7.232;2023-02-01T18:48:45;6.70;99.90
2973;DHT22;1496;51.404;7.232;2023-02-01T18:51:16;6.70;99.90
2973;DHT22;1496;51.404;7.232;2023-02-01T18:53:44;6.70;99.90
2973;DHT22;1496;51.404;7.232;2023-02-01T18:56:13;5.90;99.90
2973;DHT22;1496;51.404;7.232;2023-02-01T18:58:41;5.00;99.90
2973;DHT22;1496;51.404;7.232;2023-02-01T19:01:13;4.60;99.90
2973;DHT22;1496;51.404;7.232;2023-02-01T19:03:41;4.50;99.90
2973;DHT22;1496;51.404;7.232;2023-02-01T19:06:07;4.20;99.90